Station: Cape Willoughby  

  Atmospheric Gas Attenuation - ITU Rec 676-11   ----------------- dB/100km -----------------
Date Time Temp RH % AH g/m3 Dew Point Wind Direction Speed kph Gust kph Barometer mB Rainfall Since 9am 24GHz 47GHz 76GHz 122GHz 134GHz 241GHz
08/05 12:00 14.7 88 11.08 12.7 32 41 1030.6 0 24.8 30.5 50.5 132.8 132.9 459.0
08/05 11:50 15 87 11.16 12.8 24 30 1030.7 0 25.0 30.5 50.7 133.3 133.5 461.2
08/05 11:40 14.5 89 11.07 12.7 32 35 1030.8 0 24.8 30.5 50.6 133.1 133.1 459.7
08/05 11:30 14.5 87 10.82 12.4 22 33 1030.9 0 24.3 30.1 49.5 130.2 129.5 447.2
08/05 11:20 15.2 84 10.9 12.5 20 24 1031 0 24.4 30.0 49.4 129.9 129.5 447.2
08/05 11:10 15.3 84 10.97 12.6 26 30 1031 0 24.5 30.1 49.7 130.6 130.3 450.1
08/05 11:00 14.5 86 10.7 12.2 28 37 1031 0 24.0 29.9 49.0 128.8 127.8 441.3
08/05 10:50 14.7 85 10.7 12.2 30 33 1031 0 24.0 29.8 48.9 128.5 127.5 440.1
08/05 10:40 15.3 79 10.32 11.8 30 33 1031 0 23.2 29.0 46.9 123.2 121.2 418.2
08/05 10:30 15.2 82 10.64 12.2 24 32 1031.1 0 23.8 29.6 48.3 127.0 125.8 434.4
08/05 10:20 15.3 82 10.71 12.2 28 32 1031.1 0 24.0 29.6 48.6 127.6 126.6 437.3
08/05 10:10 14.8 83 10.51 11.9 32 39 1031 0 23.6 29.5 48.0 126.1 124.6 430.2
08/05 10:00 14.7 84 10.58 12 28 39 1031 0 23.7 29.6 48.4 127.1 125.8 434.2
08/05 09:50 14.7 85 10.7 12.2 20 28 1030.9 0 24.0 29.8 48.9 128.5 127.5 440.1
08/05 09:40 14.2 87 10.62 12 22 28 1031 0 23.9 29.9 48.9 128.4 127.2 439.0
08/05 09:30 14.3 89 10.93 12.5 30 39 1030.9 0 24.5 30.4 50.1 131.8 131.4 453.9
08/05 09:20 14 89 10.74 12.2 30 33 1030.9 0 24.1 30.1 49.5 130.1 129.2 446.1
08/05 09:10 13.8 89 10.6 12 30 33 1030.8 0 23.8 30.0 49.0 128.8 127.5 440.2
08/05 09:00 14 91 10.98 12.6 28 37 1030.8 0 24.6 30.6 50.6 132.9 132.7 458.2
08/05 08:50 13.9 92 11.03 12.6 19 26 1030.8 0.4 24.8 30.7 50.8 133.6 133.6 461.3
08/05 08:40 14.1 91 11.04 12.6 32 37 1030.6 0.4 24.8 30.6 50.7 133.4 133.3 460.5
08/05 08:30 13.9 90 10.79 12.3 30 43 1030.6 0.4 24.2 30.2 49.8 130.8 130.1 449.1
08/05 08:20 13.8 91 10.84 12.3 28 32 1030.6 0.2 24.4 30.4 50.1 131.6 131.0 452.2
08/05 08:10 13.9 91 10.91 12.4 32 41 1030.5 0.2 24.5 30.5 50.3 132.2 131.8 455.1
08/05 08:00 14 91 10.98 12.6 26 37 1030.4 0.2 24.6 30.5 50.5 132.8 132.6 458.0
08/05 07:50 13.6 90 10.59 12 28 30 1030.3 0.2 23.8 30.0 49.1 128.9 127.7 440.7
08/05 07:40 13.6 90 10.59 12 33 37 1030.2 0.2 23.8 30.0 49.1 128.9 127.7 440.6
08/05 07:30 13.8 89 10.6 12 28 43 1030 0.2 23.8 29.9 49.0 128.7 127.5 439.9
08/05 07:20 13.9 88 10.55 11.9 24 28 1030.1 0 23.7 29.8 48.7 127.9 126.6 436.9
08/05 07:10 13.9 86 10.31 11.6 30 33 1030.1 0 23.2 29.4 47.7 125.2 123.2 425.0
08/05 07:00 14.5 83 10.32 11.7 26 33 1030 0 23.2 29.2 47.3 124.3 122.3 422.2
08/05 06:50 14.4 81 10.01 11.3 20 24 1029.9 0 22.5 28.7 46.1 120.9 118.2 407.5
08/05 06:40 14.5 80 9.95 11.1 33 37 1029.7 0 22.4 28.6 45.7 120.1 117.1 404.0
08/05 06:30 14.6 77 9.64 10.6 26 32 1029.7 0 21.7 28.0 44.4 116.5 112.7 388.5
08/05 06:20 14.5 75 9.33 10.1 22 28 1029.6 0 21.1 27.5 43.2 113.2 108.6 374.2
08/05 06:10 14.5 76 9.45 10.3 33 37 1029.4 0 21.3 27.7 43.6 114.5 110.2 379.9
08/05 06:00 14.4 80 9.89 11 22 32 1029.4 0 22.3 28.5 45.5 119.5 116.4 401.5
08/05 05:50 14.3 80 9.83 10.9 24 30 1029.4 0 22.2 28.4 45.3 119.0 115.8 399.1
08/05 05:40 14.4 80 9.89 11.1 30 33 1029.3 0 22.3 28.5 45.5 119.5 116.4 401.5
08/05 05:30 14.9 78 9.94 11.1 28 41 1029.3 0 22.4 28.4 45.5 119.3 116.4 401.3
08/05 05:20 14.9 76 9.69 10.7 30 33 1029.4 0 21.8 28.0 44.4 116.5 112.9 389.3
08/05 05:10 14.7 77 9.69 10.7 26 32 1029.4 0 21.8 28.0 44.5 116.8 113.2 390.3
08/05 05:00 14.7 75 9.44 10.3 28 35 1029.3 0 21.3 27.6 43.5 114.1 109.8 378.4
08/05 04:50 14.8 75 9.5 10.4 26 32 1029.5 0 21.4 27.7 43.7 114.6 110.5 380.8
08/05 04:40 14.7 74 9.32 10.1 28 32 1029.4 0 21.1 27.4 43.0 112.7 108.2 372.7
08/05 04:30 14.7 73 9.19 9.9 30 43 1029.4 0 20.8 27.2 42.5 111.3 106.4 366.6
08/05 04:20 14.7 73 9.19 9.9 33 41 1029.2 0 20.8 27.2 42.4 111.3 106.4 366.5
08/05 04:10 14.8 75 9.5 10.4 30 37 1029.2 0 21.4 27.7 43.7 114.6 110.5 380.7
08/05 04:00 14.5 77 9.58 10.5 30 39 1029.3 0 21.6 27.9 44.2 115.9 112.0 386.0
08/05 03:50 14.6 74 9.26 10 26 30 1029.4 0 20.9 27.3 42.8 112.2 107.5 370.4
08/05 03:40 14.7 73 9.19 9.9 26 28 1029.4 0 20.8 27.2 42.5 111.3 106.4 366.6
08/05 03:30 14.7 72 9.07 9.7 30 39 1029.4 0 20.5 27.0 42.0 110.0 104.8 360.9
08/05 03:20 14.8 73 9.25 10 33 41 1029.2 0 20.9 27.3 42.6 111.8 107.1 368.9
08/05 03:10 14.6 75 9.39 10.2 28 32 1029.3 0 21.2 27.6 43.3 113.7 109.3 376.5
08/05 03:00 14.8 76 9.63 10.6 28 33 1029.4 0 21.7 27.9 44.2 116.0 112.3 387.0
08/05 02:50 14.6 77 9.64 10.6 26 30 1029.5 0 21.7 28.0 44.4 116.4 112.7 388.5
08/05 02:40 14.8 74 9.37 10.2 28 35 1029.5 0 21.2 27.5 43.1 113.2 108.7 374.6
08/05 02:30 14.6 72 9.01 9.6 24 37 1029.6 0 20.4 26.9 41.8 109.5 104.2 358.6
08/05 02:20 14.7 73 9.19 9.9 26 30 1029.5 0 20.8 27.2 42.5 111.3 106.5 366.6
08/05 02:10 14.7 74 9.32 10.1 32 35 1029.6 0 21.1 27.4 43.0 112.8 108.2 372.8
08/05 02:00 14.7 74 9.32 10.1 32 41 1029.6 0 21.1 27.4 43.0 112.8 108.2 372.8
08/05 01:50 14.7 72 9.07 9.7 35 41 1029.6 0 20.5 27.0 42.0 110.0 104.8 361.0
08/05 01:40 14.8 73 9.25 10 35 43 1029.6 0 20.9 27.3 42.7 111.9 107.1 369.0
08/05 01:30 14.7 76 9.57 10.5 26 35 1029.8 0 21.6 27.8 44.0 115.5 111.6 384.7
08/05 01:20 14.7 76 9.57 10.5 24 26 1029.9 0 21.6 27.9 44.0 115.6 111.6 384.8
08/05 01:10 14.4 75 9.27 10 26 33 1030.1 0 21.0 27.5 43.0 112.7 108.0 372.0
08/05 01:00 14.6 73 9.14 9.8 32 44 1029.8 0 20.7 27.2 42.3 111.0 105.9 364.8
08/05 00:50 14.9 68 8.67 9.2 30 35 1029.8 0 19.7 26.3 40.3 105.5 99.3 341.5
08/05 00:40 14.8 68 8.61 8.9 28 32 1029.9 0 19.5 26.2 40.1 105.0 98.6 339.2
08/05 00:30 14.6 69 8.63 9 30 41 1029.9 0 19.6 26.3 40.3 105.4 99.1 341.0
08/05 00:20 14.6 67 8.38 8.5 26 30 1030 0 19.1 25.9 39.3 102.8 95.9 329.5
08/05 00:10 14.6 66 8.26 8.3 33 35 1029.8 0 18.8 25.7 38.8 101.5 94.3 324.0
08/05 00:00 14.8 69 8.74 9.2 32 43 1029.9 0 19.8 26.5 40.6 106.4 100.3 345.2
07/05 23:50 14.5 72 8.96 9.5 35 41 1029.9 0 20.3 26.9 41.6 109.1 103.7 356.8
07/05 23:40 14.3 74 9.09 9.7 37 43 1029.9 0 20.6 27.2 42.3 110.8 105.7 363.9
07/05 23:30 14.4 74 9.15 9.8 30 39 1030.1 0 20.7 27.3 42.5 111.4 106.4 366.3
07/05 23:20 14.7 74 9.32 10.1 30 39 1030.2 0 21.1 27.4 43.0 112.8 108.3 373.0
07/05 23:10 15 68 8.72 9.3 32 37 1030.1 0 19.8 26.4 40.4 105.9 99.8 343.5
07/05 23:00 14.8 69 8.74 9.2 28 37 1030.2 0 19.8 26.5 40.6 106.4 100.4 345.3
07/05 22:50 14.5 74 9.2 9.9 26 30 1030.3 0 20.8 27.3 42.6 111.8 106.9 368.2
07/05 22:40 14.5 73 9.08 9.7 28 32 1030.4 0 20.6 27.1 42.2 110.5 105.3 362.6
07/05 22:30 14.5 73 9.08 9.7 33 43 1030.3 0 20.6 27.1 42.2 110.5 105.3 362.6
07/05 22:20 14.4 73 9.02 9.6 35 41 1030.3 0 20.4 27.0 42.0 110.0 104.6 360.2
07/05 22:10 14.3 72 8.85 9.3 20 24 1030.5 0 20.1 26.8 41.3 108.3 102.5 352.7
07/05 22:00 14.2 71 8.67 9 24 32 1030.4 0 19.7 26.5 40.6 106.5 100.2 344.7
07/05 21:50 14.5 70 8.71 9.1 30 32 1030.4 0 19.8 26.5 40.7 106.5 100.4 345.3
07/05 21:40 14.6 71 8.88 9.4 30 32 1030.4 0 20.1 26.8 41.3 108.2 102.5 352.8
07/05 21:30 14.4 69 8.53 8.8 28 33 1030.4 0 19.4 26.3 40.0 104.7 98.1 337.4
07/05 21:20 14.7 71 8.94 9.5 26 32 1030.5 0 20.2 26.8 41.5 108.7 103.2 355.2
07/05 21:10 14.4 70 8.65 9 20 24 1030.5 0 19.6 26.4 40.5 106.0 99.7 343.0
07/05 21:00 14.3 70 8.6 8.9 26 33 1030.5 0 19.5 26.4 40.3 105.6 99.2 341.1
07/05 20:50 14.4 70 8.65 9 26 30 1030.5 0 19.6 26.4 40.5 106.0 99.7 343.0
07/05 20:40 14.4 67 8.28 8.3 30 33 1030.5 0 18.9 25.9 39.0 102.0 94.8 325.9
07/05 20:30 14.4 70 8.65 9 20 32 1030.7 0 19.6 26.5 40.5 106.0 99.7 343.0
07/05 20:20 14.1 70 8.5 8.7 19 20 1030.8 0 19.3 26.3 40.0 104.8 98.1 337.4
07/05 20:10 14.1 69 8.37 8.5 30 32 1030.7 0 19.1 26.1 39.5 103.4 96.4 331.3
07/05 20:00 14 69 8.32 8.4 17 22 1030.8 0 19.0 26.0 39.4 103.0 95.9 329.5
07/05 19:50 13.9 68 8.15 8.1 17 19 1030.9 0 18.6 25.8 38.7 101.3 93.8 322.1
07/05 19:40 13.8 65 7.74 7.5 20 22 1030.8 0 17.7 25.2 37.1 97.1 88.5 303.7
07/05 19:30 14 65 7.84 7.5 26 35 1030.7 0 17.9 25.3 37.4 97.9 89.6 307.4

Last Refresh: 08-May-2026 12:08:16

Bureau of Meteorology